Time;durP1;ratioP1;P1;durP2;ratioP2;P2;SDS_P1;SDS_P2;PMS_P1;PMS_P2;Temp;Humidity;BMP_temperature;BMP_pressure;BME280_temperature;BME280_humidity;BME280_pressure;Samples;Min_cycle;Max_cycle;Signal;HPM_P1;HPM_P2
2024/01/24 00:01:10;;;;;;;14.38;7.10;;;11.20;99.90;;;;;;5032868;28;20045;-67
2024/01/24 00:03:35;;;;;;;8.60;5.90;;;11.20;99.90;;;;;;5033342;28;20041;-68
2024/01/24 00:06:01;;;;;;;12.43;7.57;;;11.20;99.90;;;;;;5028888;28;20049;-67
2024/01/24 00:08:27;;;;;;;9.80;5.60;;;11.20;99.90;;;;;;5031356;28;20067;-68
2024/01/24 00:10:53;;;;;;;11.23;4.90;;;11.20;99.90;;;;;;5031597;28;20037;-70
2024/01/24 00:13:19;;;;;;;8.00;5.25;;;11.20;99.90;;;;;;5035931;28;20044;-67
2024/01/24 00:15:44;;;;;;;11.60;4.65;;;11.20;99.90;;;;;;5023959;28;20044;-68
2024/01/24 00:18:10;;;;;;;9.88;4.53;;;11.20;99.90;;;;;;5035824;28;20038;-65
2024/01/24 00:20:36;;;;;;;7.95;4.18;;;11.20;99.90;;;;;;5031796;28;20418;-66
2024/01/24 00:23:02;;;;;;;8.15;4.25;;;11.30;99.90;;;;;;5046577;28;20052;-68
2024/01/24 00:25:27;;;;;;;8.25;4.35;;;11.30;99.90;;;;;;5045806;28;20033;-68
2024/01/24 00:27:53;;;;;;;6.80;3.67;;;11.30;99.90;;;;;;5025158;28;20060;-68
2024/01/24 00:30:19;;;;;;;6.45;3.60;;;11.20;99.90;;;;;;5029110;28;20072;-67
2024/01/24 00:32:44;;;;;;;7.70;3.88;;;11.20;99.90;;;;;;5030219;28;20485;-67
2024/01/24 00:35:10;;;;;;;10.02;3.63;;;11.30;99.90;;;;;;5036880;28;20044;-66
2024/01/24 00:37:35;;;;;;;9.82;3.60;;;11.30;99.90;;;;;;5049912;28;20435;-66
2024/01/24 00:40:02;;;;;;;7.30;3.40;;;11.30;99.90;;;;;;5040196;28;20041;-67
2024/01/24 00:42:28;;;;;;;9.20;3.40;;;11.30;99.90;;;;;;5035779;28;20041;-66
2024/01/24 00:44:54;;;;;;;7.93;2.85;;;11.30;99.90;;;;;;5037655;28;20041;-67
2024/01/24 00:47:20;;;;;;;7.43;3.08;;;11.30;99.90;;;;;;5035596;28;20072;-66
2024/01/24 00:49:45;;;;;;;9.15;3.13;;;11.30;99.90;;;;;;5040079;28;20433;-68
2024/01/24 00:52:11;;;;;;;7.38;3.10;;;11.30;99.90;;;;;;5038017;28;20132;-66
2024/01/24 00:54:37;;;;;;;8.18;2.95;;;11.30;99.90;;;;;;5039265;28;20029;-69
2024/01/24 00:57:03;;;;;;;9.20;2.95;;;11.30;99.90;;;;;;5029785;28;20482;-68
2024/01/24 00:59:29;;;;;;;8.90;2.83;;;11.30;99.90;;;;;;5046893;28;20037;-68
2024/01/24 01:01:54;;;;;;;5.82;3.03;;;11.40;99.90;;;;;;5024552;28;20359;-67
2024/01/24 01:04:21;;;;;;;7.15;2.58;;;11.50;99.90;;;;;;5034532;28;20033;-68
2024/01/24 01:06:47;;;;;;;6.72;2.63;;;11.40;99.90;;;;;;5031208;28;20515;-67
2024/01/24 01:09:12;;;;;;;10.80;3.05;;;11.40;99.90;;;;;;5040508;28;20041;-69
2024/01/24 01:11:38;;;;;;;7.75;2.90;;;11.30;99.90;;;;;;5029225;28;20037;-68
2024/01/24 01:14:04;;;;;;;7.90;2.75;;;11.50;99.90;;;;;;5041703;28;20576;-67
2024/01/24 01:16:30;;;;;;;4.72;2.35;;;11.50;99.90;;;;;;5031605;28;20406;-67
2024/01/24 01:18:55;;;;;;;4.80;2.67;;;11.50;99.90;;;;;;5038663;28;20072;-68
2024/01/24 01:21:21;;;;;;;4.55;2.53;;;11.50;99.90;;;;;;5043507;28;20040;-67
2024/01/24 01:23:47;;;;;;;7.22;2.47;;;11.50;99.90;;;;;;5049184;28;20041;-67
2024/01/24 01:26:13;;;;;;;3.15;2.00;;;11.40;99.90;;;;;;5040504;28;20033;-66
2024/01/24 01:28:38;;;;;;;5.45;2.80;;;11.50;99.90;;;;;;5028504;28;20046;-68
2024/01/24 01:31:05;;;;;;;4.03;2.13;;;11.50;99.90;;;;;;5030036;28;20115;-67
2024/01/24 01:33:30;;;;;;;4.47;2.30;;;11.50;99.90;;;;;;5039719;28;20420;-68
2024/01/24 01:35:56;;;;;;;5.45;2.40;;;11.50;99.90;;;;;;5033107;28;20042;-68
2024/01/24 01:38:21;;;;;;;3.40;1.75;;;11.60;99.90;;;;;;5027780;28;20033;-68
2024/01/24 01:40:47;;;;;;;5.07;1.77;;;11.50;99.90;;;;;;5039511;28;20095;-67
2024/01/24 01:43:16;;;;;;;4.10;1.88;;;11.50;99.90;;;;;;5032407;28;20041;-69
2024/01/24 01:45:42;;;;;;;3.08;1.67;;;11.50;99.90;;;;;;5027133;28;20091;-68
2024/01/24 01:48:09;;;;;;;3.97;1.48;;;11.50;99.90;;;;;;5032486;28;20041;-68
2024/01/24 01:50:36;;;;;;;2.30;1.38;;;11.50;99.90;;;;;;5028096;28;20034;-69
2024/01/24 01:53:03;;;;;;;3.38;1.52;;;11.50;99.90;;;;;;5035489;28;20643;-68
2024/01/24 01:55:31;;;;;;;10.32;2.20;;;11.50;99.90;;;;;;5031087;28;20068;-67
2024/01/24 01:57:58;;;;;;;17.60;2.33;;;11.50;99.90;;;;;;5028102;28;20033;-68
2024/01/24 02:00:25;;;;;;;5.07;1.15;;;11.60;99.90;;;;;;5032023;28;20033;-68
2024/01/24 02:02:51;;;;;;;5.88;1.30;;;11.50;99.90;;;;;;5036171;28;20084;-67
2024/01/24 02:05:17;;;;;;;3.13;1.20;;;11.50;99.90;;;;;;5030469;28;20076;-68
2024/01/24 02:07:44;;;;;;;4.10;0.80;;;11.50;99.90;;;;;;5033923;28;20056;-67
2024/01/24 02:10:13;;;;;;;3.30;0.82;;;11.50;99.90;;;;;;5038805;28;20045;-66
2024/01/24 02:12:39;;;;;;;5.82;1.00;;;11.50;99.90;;;;;;5036953;28;20080;-69
2024/01/24 02:15:06;;;;;;;4.03;0.80;;;11.50;99.90;;;;;;5042967;28;20075;-69
2024/01/24 02:17:31;;;;;;;4.03;1.23;;;11.50;99.90;;;;;;5028652;28;20045;-66
2024/01/24 02:19:57;;;;;;;3.25;1.00;;;11.50;99.90;;;;;;5033238;28;20040;-69
2024/01/24 02:22:23;;;;;;;3.72;0.82;;;11.60;99.90;;;;;;5014461;28;20033;-71
2024/01/24 02:24:48;;;;;;;4.72;0.73;;;11.60;99.90;;;;;;5034675;28;20052;-68
2024/01/24 02:27:14;;;;;;;7.43;1.10;;;11.50;99.90;;;;;;5032669;28;20041;-66
2024/01/24 02:29:40;;;;;;;3.70;1.10;;;11.50;99.90;;;;;;5032212;28;20120;-70
2024/01/24 02:32:05;;;;;;;6.32;1.00;;;11.40;99.90;;;;;;5036960;28;20051;-68
2024/01/24 02:34:31;;;;;;;5.00;0.82;;;11.40;99.90;;;;;;5034026;28;20171;-68
2024/01/24 02:36:57;;;;;;;4.38;0.90;;;11.40;99.90;;;;;;5027434;28;20562;-66
2024/01/24 02:39:22;;;;;;;6.32;0.90;;;11.20;99.90;;;;;;5035961;28;20136;-69
2024/01/24 02:41:48;;;;;;;6.25;1.00;;;11.20;99.90;;;;;;5040498;28;20048;-66
2024/01/24 02:44:14;;;;;;;5.88;1.33;;;11.10;99.90;;;;;;5039192;28;20122;-68
2024/01/24 02:46:39;;;;;;;4.07;0.90;;;11.10;99.90;;;;;;5026740;28;20179;-68
2024/01/24 02:49:05;;;;;;;4.60;1.00;;;11.20;99.90;;;;;;5013832;28;20045;-68
2024/01/24 02:51:31;;;;;;;8.73;1.30;;;11.20;99.90;;;;;;5032204;28;20042;-70
2024/01/24 02:53:56;;;;;;;2.75;0.80;;;11.30;99.90;;;;;;5058599;28;20066;-68
2024/01/24 02:56:22;;;;;;;3.28;0.80;;;11.40;99.90;;;;;;5037781;28;20393;-68
2024/01/24 02:58:48;;;;;;;6.57;1.30;;;11.40;99.90;;;;;;5054992;28;20552;-66
2024/01/24 03:01:15;;;;;;;6.03;0.85;;;11.30;99.90;;;;;;5038322;28;20037;-70
2024/01/24 03:03:42;;;;;;;6.32;1.55;;;11.30;99.90;;;;;;5036198;28;20057;-68
2024/01/24 03:06:08;;;;;;;7.00;1.40;;;11.30;99.90;;;;;;5039190;28;20053;-67
2024/01/24 03:08:50;;;;;;;3.85;1.13;;;11.20;99.90;;;;;;5032230;28;20049;-67
2024/01/24 03:11:16;;;;;;;7.97;1.95;;;11.20;99.90;;;;;;5018894;28;20047;-67
2024/01/24 03:13:42;;;;;;;9.75;2.03;;;11.30;99.90;;;;;;5047356;28;20387;-71
2024/01/24 03:16:08;;;;;;;8.57;1.65;;;11.20;99.90;;;;;;5031015;28;20041;-69
2024/01/24 03:18:38;;;;;;;8.88;1.73;;;11.30;99.90;;;;;;5046251;28;20049;-69
2024/01/24 03:21:09;;;;;;;9.52;1.60;;;11.20;99.90;;;;;;5032780;28;20045;-71
2024/01/24 03:23:38;;;;;;;15.48;2.40;;;11.10;99.90;;;;;;5032100;28;20051;-68
2024/01/24 03:26:07;;;;;;;13.13;2.58;;;11.20;99.90;;;;;;5037467;28;20045;-68
2024/01/24 03:28:34;;;;;;;11.65;3.05;;;11.20;99.90;;;;;;5051063;28;20040;-67
2024/01/24 03:31:00;;;;;;;13.25;2.10;;;11.10;99.90;;;;;;5059889;28;20083;-70
2024/01/24 03:33:26;;;;;;;11.57;2.80;;;11.00;99.90;;;;;;5050903;28;20462;-68
2024/01/24 03:35:52;;;;;;;15.23;2.53;;;10.90;99.90;;;;;;5048743;28;20067;-65
2024/01/24 03:38:19;;;;;;;18.23;2.63;;;10.80;99.90;;;;;;5046238;28;20025;-69
2024/01/24 03:40:45;;;;;;;15.13;2.95;;;10.80;99.90;;;;;;5015035;28;20046;-68
2024/01/24 03:43:10;;;;;;;13.38;2.85;;;10.90;99.90;;;;;;5035365;28;20052;-69
2024/01/24 03:45:37;;;;;;;13.68;2.63;;;11.00;99.90;;;;;;5031339;28;20070;-67
2024/01/24 03:48:07;;;;;;;13.20;2.20;;;10.90;99.90;;;;;;5041455;28;20034;-69
2024/01/24 03:50:33;;;;;;;18.10;3.03;;;10.90;99.90;;;;;;5042890;28;20068;-66
2024/01/24 03:53:02;;;;;;;14.55;2.60;;;11.00;99.90;;;;;;5039134;28;20041;-69
2024/01/24 03:55:29;;;;;;;13.07;2.67;;;10.90;99.90;;;;;;5038740;28;20476;-67
2024/01/24 03:57:55;;;;;;;11.75;2.50;;;10.80;99.90;;;;;;5022876;28;20456;-72
2024/01/24 04:00:21;;;;;;;15.82;2.35;;;11.00;99.90;;;;;;5026993;28;20033;-68
2024/01/24 04:02:47;;;;;;;13.98;2.13;;;11.00;99.90;;;;;;5032459;28;20485;-67
2024/01/24 04:05:14;;;;;;;13.48;2.63;;;10.90;99.90;;;;;;5041264;28;20083;-67
2024/01/24 04:07:40;;;;;;;13.02;2.05;;;11.10;99.90;;;;;;5044527;28;20052;-67
2024/01/24 04:10:06;;;;;;;15.55;2.90;;;10.90;99.90;;;;;;5036705;28;20041;-73
2024/01/24 04:12:31;;;;;;;12.10;2.20;;;11.10;94.90;;;;;;5036574;28;20047;-69
2024/01/24 04:14:57;;;;;;;14.65;3.08;;;11.00;99.90;;;;;;5041523;28;20442;-69
2024/01/24 04:17:23;;;;;;;13.30;2.45;;;11.00;99.90;;;;;;5045566;28;20457;-71
2024/01/24 04:19:48;;;;;;;13.70;2.70;;;11.00;99.90;;;;;;5039907;28;20057;-71
2024/01/24 04:22:15;;;;;;;16.52;3.58;;;11.10;99.90;;;;;;5036430;28;20067;-68
2024/01/24 04:24:45;;;;;;;18.23;3.20;;;11.10;99.90;;;;;;5017378;28;20102;-69
2024/01/24 04:27:10;;;;;;;20.10;3.55;;;11.00;99.90;;;;;;5022011;28;20041;-68
2024/01/24 04:29:36;;;;;;;16.83;3.50;;;11.00;99.90;;;;;;5028054;28;20045;-69
2024/01/24 04:32:03;;;;;;;16.65;3.30;;;11.00;99.90;;;;;;5039228;28;20066;-70
2024/01/24 04:34:28;;;;;;;21.35;4.15;;;11.00;99.90;;;;;;5033691;28;20049;-67
2024/01/24 04:36:54;;;;;;;21.13;4.25;;;11.00;99.90;;;;;;5035009;28;20041;-69
2024/01/24 04:39:21;;;;;;;13.52;3.67;;;11.00;99.90;;;;;;5040257;28;20468;-69
2024/01/24 04:41:47;;;;;;;28.73;4.22;;;10.90;99.90;;;;;;5033955;28;20076;-68
2024/01/24 04:44:13;;;;;;;18.60;3.92;;;10.80;99.90;;;;;;5041135;28;20071;-72
2024/01/24 04:46:38;;;;;;;19.67;3.85;;;10.80;99.90;;;;;;5039518;28;20078;-70
2024/01/24 04:49:04;;;;;;;17.92;4.03;;;10.80;99.90;;;;;;5041232;28;20100;-75
2024/01/24 04:51:30;;;;;;;20.23;3.85;;;10.90;99.90;;;;;;5051167;28;20040;-68
2024/01/24 04:53:55;;;;;;;17.10;3.50;;;10.90;99.90;;;;;;5047578;28;20519;-68
2024/01/24 04:56:21;;;;;;;17.40;3.30;;;10.80;99.90;;;;;;5034334;28;20040;-68
2024/01/24 04:58:47;;;;;;;23.25;3.65;;;10.80;99.90;;;;;;5045708;28;20080;-70
2024/01/24 05:01:12;;;;;;;20.20;3.33;;;10.80;99.90;;;;;;5049787;28;20155;-69
2024/01/24 05:03:38;;;;;;;27.95;3.88;;;10.50;99.90;;;;;;5042318;28;20041;-67
2024/01/24 05:06:04;;;;;;;20.88;3.90;;;10.40;99.90;;;;;;5047640;28;20048;-71
2024/01/24 05:08:30;;;;;;;19.98;3.35;;;9.90;99.90;;;;;;5031141;28;20051;-69
2024/01/24 05:10:55;;;;;;;16.35;2.90;;;9.70;99.90;;;;;;5044093;28;20041;-71
2024/01/24 05:13:21;;;;;;;23.23;4.18;;;9.60;99.90;;;;;;5031627;28;20049;-66
2024/01/24 05:15:47;;;;;;;25.67;4.05;;;9.60;99.90;;;;;;5051125;28;20143;-68
2024/01/24 05:18:12;;;;;;;26.92;5.03;;;9.60;99.90;;;;;;5060864;28;20045;-68
2024/01/24 05:20:38;;;;;;;23.80;3.80;;;9.50;99.90;;;;;;5021498;28;20087;-69
2024/01/24 05:23:04;;;;;;;24.40;4.75;;;9.50;99.90;;;;;;5038823;28;20063;-69
2024/01/24 05:25:30;;;;;;;23.52;3.75;;;9.60;99.90;;;;;;5035024;28;20045;-68
2024/01/24 05:27:56;;;;;;;24.80;4.05;;;9.70;1.00;;;;;;5027431;28;20057;-68
2024/01/24 05:30:22;;;;;;;32.75;5.80;;;9.70;1.00;;;;;;5036710;28;20057;-68
2024/01/24 05:32:47;;;;;;;24.98;4.97;;;9.90;99.90;;;;;;5029470;28;20052;-67
2024/01/24 05:35:13;;;;;;;20.08;4.18;;;10.00;99.90;;;;;;5046329;28;20040;-71
2024/01/24 05:37:39;;;;;;;27.45;4.88;;;9.90;99.90;;;;;;5039777;28;20036;-68
2024/01/24 05:40:06;;;;;;;30.92;4.70;;;10.10;99.90;;;;;;5038081;28;20094;-67
2024/01/24 05:42:32;;;;;;;26.25;4.18;;;10.10;99.90;;;;;;5048910;28;20033;-66
2024/01/24 05:44:58;;;;;;;29.75;5.70;;;10.20;99.90;;;;;;5023023;28;20088;-70
2024/01/24 05:47:24;;;;;;;36.22;5.53;;;10.10;99.90;;;;;;5025812;28;20485;-69
2024/01/24 05:49:49;;;;;;;26.98;4.53;;;10.20;99.90;;;;;;5041821;28;20408;-69
2024/01/24 05:52:15;;;;;;;34.08;5.28;;;10.20;99.90;;;;;;5032418;28;20041;-68
2024/01/24 05:54:40;;;;;;;27.92;5.95;;;10.30;99.90;;;;;;5024824;28;20039;-67
2024/01/24 05:57:06;;;;;;;23.77;5.35;;;10.30;99.90;;;;;;5027284;28;20147;-68
2024/01/24 05:59:32;;;;;;;25.20;4.47;;;10.30;99.90;;;;;;5026891;28;20063;-68
2024/01/24 06:01:58;;;;;;;28.13;4.32;;;10.40;99.90;;;;;;5037368;28;20176;-68
2024/01/24 06:04:23;;;;;;;26.08;4.75;;;10.30;99.90;;;;;;5029528;28;20041;-68
2024/01/24 06:06:49;;;;;;;22.95;4.15;;;10.20;99.90;;;;;;5029140;28;20033;-68
2024/01/24 06:09:18;;;;;;;31.27;5.30;;;10.20;99.90;;;;;;5038740;28;20041;-69
2024/01/24 06:11:45;;;;;;;19.88;4.82;;;10.20;99.90;;;;;;5027500;28;20041;-69
2024/01/24 06:14:11;;;;;;;32.42;4.82;;;10.10;99.90;;;;;;5041144;28;20034;-67
2024/01/24 06:16:36;;;;;;;37.67;5.57;;;10.10;99.90;;;;;;5032367;28;20172;-72
2024/01/24 06:19:02;;;;;;;30.80;5.65;;;10.00;99.90;;;;;;5036239;28;20105;-69
2024/01/24 06:21:28;;;;;;;35.25;4.80;;;10.00;99.90;;;;;;5033339;28;20381;-68
2024/01/24 06:23:53;;;;;;;32.83;5.13;;;10.10;99.90;;;;;;5027279;28;20535;-72
2024/01/24 06:26:19;;;;;;;27.15;4.85;;;10.00;99.90;;;;;;5031279;28;20049;-68
2024/01/24 06:28:46;;;;;;;26.92;5.03;;;10.10;99.90;;;;;;5027182;28;20099;-68
2024/01/24 06:31:12;;;;;;;28.98;4.68;;;10.00;99.90;;;;;;5036858;28;20064;-67
2024/01/24 06:33:38;;;;;;;32.63;5.28;;;10.10;99.90;;;;;;5033350;28;20073;-67
2024/01/24 06:36:04;;;;;;;28.75;5.68;;;10.00;99.90;;;;;;5028319;28;20472;-70
2024/01/24 06:38:30;;;;;;;30.58;5.75;;;10.00;99.90;;;;;;5019156;28;20128;-69
2024/01/24 06:40:56;;;;;;;25.63;4.80;;;10.00;99.90;;;;;;5028900;28;20037;-70
2024/01/24 06:43:21;;;;;;;23.65;4.60;;;10.00;99.90;;;;;;5042864;28;20045;-68
2024/01/24 06:45:47;;;;;;;32.85;5.85;;;10.10;99.90;;;;;;5048353;28;20063;-72
2024/01/24 06:48:13;;;;;;;36.35;5.82;;;10.10;99.90;;;;;;5039301;28;20447;-67
2024/01/24 06:50:39;;;;;;;30.88;5.20;;;10.10;99.90;;;;;;5031138;28;20132;-69
2024/01/24 06:53:09;;;;;;;26.88;5.20;;;10.10;99.90;;;;;;5042246;28;20041;-68
2024/01/24 06:55:36;;;;;;;27.10;4.75;;;10.10;99.90;;;;;;5036459;28;20055;-66
2024/01/24 06:58:02;;;;;;;26.95;4.88;;;10.10;99.90;;;;;;5039386;28;20137;-69
2024/01/24 07:00:29;;;;;;;32.97;4.70;;;10.10;99.90;;;;;;5032449;28;20034;-68
2024/01/24 07:02:55;;;;;;;23.50;4.55;;;10.00;99.90;;;;;;5017825;28;20038;-67
2024/01/24 07:05:21;;;;;;;33.85;5.60;;;10.00;99.90;;;;;;5033917;28;20484;-69
2024/01/24 07:07:47;;;;;;;25.00;5.85;;;10.00;99.90;;;;;;5033874;28;20167;-71
2024/01/24 07:10:13;;;;;;;29.02;4.63;;;10.10;99.90;;;;;;5048474;28;20069;-68
2024/01/24 07:12:44;;;;;;;21.35;4.50;;;10.10;99.90;;;;;;5036180;28;20122;-75
2024/01/24 07:15:11;;;;;;;26.67;5.60;;;10.10;99.90;;;;;;5033106;28;20048;-67
2024/01/24 07:17:36;;;;;;;23.23;4.43;;;10.10;99.90;;;;;;5019042;28;20040;-69
2024/01/24 07:20:02;;;;;;;22.35;4.05;;;10.10;99.90;;;;;;5031998;28;20034;-68
2024/01/24 07:22:28;;;;;;;28.08;4.53;;;10.20;99.90;;;;;;5034554;28;20037;-67
2024/01/24 07:24:53;;;;;;;27.98;4.70;;;10.20;99.90;;;;;;5041419;28;20485;-71
2024/01/24 07:27:19;;;;;;;29.58;4.85;;;10.20;99.90;;;;;;5051719;28;20069;-68
2024/01/24 07:29:44;;;;;;;29.17;5.80;;;10.20;99.90;;;;;;5047312;28;20037;-70
2024/01/24 07:32:10;;;;;;;26.30;5.20;;;10.20;99.90;;;;;;5029696;28;20059;-70
2024/01/24 07:34:38;;;;;;;34.33;5.53;;;10.20;99.90;;;;;;5044208;28;20107;-66
2024/01/24 07:37:04;;;;;;;32.65;5.78;;;10.20;99.90;;;;;;5044611;28;20041;-67
2024/01/24 07:39:30;;;;;;;34.85;5.85;;;10.10;99.90;;;;;;5046092;28;20068;-70
2024/01/24 07:41:56;;;;;;;33.15;6.68;;;10.10;99.90;;;;;;5051630;28;20470;-67
2024/01/24 07:44:22;;;;;;;28.45;5.63;;;10.10;99.90;;;;;;5045681;28;20042;-71
2024/01/24 07:46:48;;;;;;;35.75;6.20;;;10.00;99.90;;;;;;5050581;28;20123;-67
2024/01/24 07:49:13;;;;;;;38.08;5.75;;;10.00;99.90;;;;;;5046963;28;20343;-69
2024/01/24 07:51:41;;;;;;;33.63;5.47;;;9.90;99.90;;;;;;5034614;28;20037;-73
2024/01/24 07:54:07;;;;;;;36.60;6.00;;;9.90;99.90;;;;;;5050105;28;20055;-69
2024/01/24 07:56:32;;;;;;;31.60;6.32;;;9.90;99.90;;;;;;5051092;28;20033;-68
2024/01/24 07:58:58;;;;;;;30.65;7.45;;;9.90;99.90;;;;;;5045479;28;22012;-69
2024/01/24 08:01:24;;;;;;;26.02;5.65;;;9.90;99.90;;;;;;5049422;28;20508;-69
2024/01/24 08:03:50;;;;;;;34.85;6.00;;;9.90;99.90;;;;;;5047876;28;20048;-65
2024/01/24 08:06:16;;;;;;;27.27;5.30;;;10.00;99.90;;;;;;5050076;28;20033;-73
2024/01/24 08:08:41;;;;;;;32.08;6.13;;;10.00;99.90;;;;;;5051052;28;20091;-68
2024/01/24 08:11:07;;;;;;;31.08;5.30;;;10.00;99.90;;;;;;5030236;28;20083;-69
2024/01/24 08:13:33;;;;;;;39.72;5.72;;;10.00;99.90;;;;;;5045362;28;20419;-70
2024/01/24 08:15:59;;;;;;;27.65;5.13;;;10.00;99.90;;;;;;5034654;28;20086;-72
2024/01/24 08:18:24;;;;;;;35.85;5.30;;;9.90;99.90;;;;;;5050428;28;20047;-67
2024/01/24 08:20:52;;;;;;;30.35;5.70;;;9.80;99.90;;;;;;5047857;28;20207;-70
2024/01/24 08:23:18;;;;;;;35.33;6.25;;;9.80;99.90;;;;;;5047781;28;20048;-71
2024/01/24 08:25:44;;;;;;;25.30;6.15;;;9.90;99.90;;;;;;5047922;28;20052;-71
2024/01/24 08:28:10;;;;;;;28.48;5.75;;;9.90;99.90;;;;;;5033075;28;20140;-69
2024/01/24 08:30:36;;;;;;;30.98;6.13;;;10.00;99.90;;;;;;5048458;28;20060;-70
2024/01/24 08:33:02;;;;;;;27.75;4.82;;;9.90;99.90;;;;;;5047394;28;20512;-66
2024/01/24 08:35:27;;;;;;;31.42;5.20;;;9.90;99.90;;;;;;5048505;28;20076;-67
2024/01/24 08:37:53;;;;;;;29.52;5.70;;;10.00;99.90;;;;;;5050780;28;20485;-68
2024/01/24 08:40:21;;;;;;;26.63;4.72;;;10.10;99.90;;;;;;5048303;28;20043;-68
2024/01/24 08:42:47;;;;;;;27.98;5.18;;;10.00;99.90;;;;;;5049588;28;20045;-69
2024/01/24 08:45:12;;;;;;;29.25;5.72;;;10.00;99.90;;;;;;5047895;28;20043;-68
2024/01/24 08:47:38;;;;;;;37.40;5.88;;;10.00;99.90;;;;;;5048486;28;20036;-71
2024/01/24 08:50:05;;;;;;;31.95;5.55;;;10.00;99.90;;;;;;5048602;28;20044;-71
2024/01/24 08:52:31;;;;;;;30.58;5.55;;;10.00;99.90;;;;;;5049687;28;20142;-72
2024/01/24 08:54:57;;;;;;;30.95;5.57;;;10.00;99.90;;;;;;5046015;28;20047;-73
2024/01/24 08:57:24;;;;;;;28.80;5.45;;;10.00;99.90;;;;;;5048678;28;20404;-66
2024/01/24 08:59:50;;;;;;;30.63;6.63;;;10.10;99.90;;;;;;5046954;28;20036;-71
2024/01/24 09:02:16;;;;;;;31.10;5.35;;;10.00;99.90;;;;;;5047384;28;20099;-69
2024/01/24 09:04:41;;;;;;;36.00;6.15;;;10.00;99.90;;;;;;5044314;28;20036;-68
2024/01/24 09:07:08;;;;;;;36.70;5.97;;;10.00;99.90;;;;;;5050106;28;20048;-68
2024/01/24 09:09:34;;;;;;;36.40;5.70;;;10.00;99.90;;;;;;5047239;28;20044;-69
2024/01/24 09:12:00;;;;;;;31.73;5.50;;;9.90;99.90;;;;;;5041509;28;20063;-69
2024/01/24 09:14:26;;;;;;;35.90;5.78;;;10.00;99.90;;;;;;5046199;28;20039;-69
2024/01/24 09:16:52;;;;;;;26.80;6.15;;;10.00;99.90;;;;;;5049810;28;20503;-72
2024/01/24 09:19:18;;;;;;;32.42;5.75;;;10.00;99.90;;;;;;5030091;28;20458;-65
2024/01/24 09:21:43;;;;;;;28.73;5.30;;;9.90;99.90;;;;;;5028511;28;20079;-68
2024/01/24 09:24:09;;;;;;;35.45;5.75;;;9.90;99.90;;;;;;5049773;28;20125;-68
2024/01/24 09:26:35;;;;;;;35.13;5.22;;;9.90;99.90;;;;;;5048720;28;20044;-71
2024/01/24 09:29:01;;;;;;;32.63;5.75;;;9.90;99.90;;;;;;5030879;28;20083;-71
2024/01/24 09:31:27;;;;;;;33.38;5.30;;;10.00;99.90;;;;;;5028649;28;20076;-68
2024/01/24 09:33:53;;;;;;;36.78;5.90;;;10.00;99.90;;;;;;5046501;28;20389;-68
2024/01/24 09:36:19;;;;;;;35.33;5.55;;;10.00;99.90;;;;;;5049120;28;20041;-68
2024/01/24 09:38:45;;;;;;;32.63;5.65;;;10.10;99.90;;;;;;5049815;28;20121;-71
2024/01/24 09:41:19;;;;;;;29.30;5.28;;;10.10;99.90;;;;;;5044497;28;20036;-70
2024/01/24 09:43:46;;;;;;;29.85;5.45;;;10.10;99.90;;;;;;5030987;28;20049;-67
2024/01/24 09:46:18;;;;;;;32.30;5.18;;;10.30;99.90;;;;;;5051039;28;20037;-68
2024/01/24 09:48:45;;;;;;;28.42;4.85;;;10.30;99.90;;;;;;5048102;28;20045;-66
2024/01/24 09:51:12;;;;;;;33.85;4.75;;;10.40;99.90;;;;;;5047453;28;20384;-70
2024/01/24 09:53:39;;;;;;;32.63;5.60;;;10.40;99.90;;;;;;5046761;28;20128;-67
2024/01/24 09:56:06;;;;;;;29.73;5.72;;;10.50;99.90;;;;;;5045963;28;20037;-66
2024/01/24 09:58:32;;;;;;;30.85;5.05;;;10.50;99.90;;;;;;5048478;28;20412;-68
2024/01/24 10:01:00;;;;;;;26.70;5.70;;;10.50;99.90;;;;;;5048137;28;20033;-67
2024/01/24 10:03:27;;;;;;;31.45;5.53;;;10.60;99.90;;;;;;5044646;28;20116;-68
2024/01/24 10:05:54;;;;;;;29.40;4.75;;;10.50;99.90;;;;;;5048178;28;20082;-66
2024/01/24 10:08:20;;;;;;;24.95;5.03;;;10.60;99.90;;;;;;5051125;28;20451;-67
2024/01/24 10:10:46;;;;;;;32.97;5.78;;;10.70;99.90;;;;;;5049654;28;20045;-70
2024/01/24 10:13:11;;;;;;;23.60;4.28;;;10.80;99.90;;;;;;5038571;28;20052;-68
2024/01/24 10:15:38;;;;;;;26.63;4.40;;;10.80;99.90;;;;;;5047579;28;20033;-71
2024/01/24 10:18:05;;;;;;;29.00;5.32;;;10.80;99.90;;;;;;5051093;28;20060;-70
2024/01/24 10:20:31;;;;;;;33.72;5.28;;;10.80;99.90;;;;;;5052635;28;20330;-68
2024/01/24 10:22:58;;;;;;;24.30;4.30;;;10.80;99.90;;;;;;5047208;28;20151;-65
2024/01/24 10:25:24;;;;;;;24.63;4.05;;;10.90;99.90;;;;;;5050912;28;20067;-64
2024/01/24 10:27:50;;;;;;;28.77;5.18;;;10.80;99.90;;;;;;5035338;28;20048;-68
2024/01/24 10:30:16;;;;;;;24.08;5.15;;;10.80;99.90;;;;;;5051297;28;20052;-69
2024/01/24 10:32:47;;;;;;;26.27;5.38;;;10.80;99.90;;;;;;5048480;28;20080;-68
2024/01/24 10:35:13;;;;;;;26.90;4.97;;;10.90;99.90;;;;;;5052021;28;20123;-69
2024/01/24 10:37:40;;;;;;;24.00;4.22;;;10.90;99.90;;;;;;5052572;28;20136;-68
2024/01/24 10:40:11;;;;;;;31.30;4.97;;;10.80;99.90;;;;;;5051167;28;20051;-68
2024/01/24 10:42:40;;;;;;;27.98;4.63;;;10.80;99.90;;;;;;5032484;28;20117;-68
2024/01/24 10:45:06;;;;;;;24.70;4.63;;;10.80;99.90;;;;;;5050148;28;20436;-69
2024/01/24 10:47:34;;;;;;;32.22;4.57;;;10.80;99.90;;;;;;5052100;28;20087;-67
2024/01/24 10:50:04;;;;;;;22.63;5.18;;;10.80;99.90;;;;;;5052173;28;20037;-72
2024/01/24 10:52:32;;;;;;;27.33;5.35;;;10.80;99.90;;;;;;5050249;28;20068;-69
2024/01/24 10:55:06;;;;;;;17.13;3.83;;;10.80;99.90;;;;;;5048459;28;20037;-70
2024/01/24 10:57:35;;;;;;;23.75;4.72;;;11.00;99.90;;;;;;5048073;28;20075;-69
2024/01/24 11:00:10;;;;;;;27.63;4.88;;;11.10;99.90;;;;;;5051708;28;20047;-67
2024/01/24 11:02:37;;;;;;;27.95;4.68;;;11.00;99.90;;;;;;5038958;28;20048;-70
2024/01/24 11:05:05;;;;;;;30.15;5.00;;;11.00;99.90;;;;;;5049959;28;20041;-68
2024/01/24 11:07:40;;;;;;;21.50;4.60;;;11.00;99.90;;;;;;5050823;28;20029;-73
2024/01/24 11:10:26;;;;;;;30.77;5.10;;;11.00;99.90;;;;;;5049065;28;20048;-69
2024/01/24 11:12:52;;;;;;;18.60;3.58;;;10.90;99.90;;;;;;5041894;28;20520;-68
2024/01/24 11:15:18;;;;;;;20.75;4.40;;;10.90;99.90;;;;;;5040365;28;20029;-66
2024/01/24 11:17:46;;;;;;;25.80;4.03;;;10.90;99.90;;;;;;5034554;28;20033;-71
2024/01/24 11:20:12;;;;;;;28.92;4.65;;;10.80;99.90;;;;;;5050539;28;20037;-68
2024/01/24 11:22:38;;;;;;;25.83;4.35;;;10.70;99.90;;;;;;5038132;28;20029;-70
2024/01/24 11:25:04;;;;;;;16.65;4.57;;;10.80;99.90;;;;;;5051185;28;20461;-67
2024/01/24 11:27:33;;;;;;;27.25;4.80;;;10.80;99.90;;;;;;5044283;28;20048;-65
2024/01/24 11:30:11;;;;;;;22.23;4.50;;;10.80;99.90;;;;;;5035334;28;20077;-68
2024/01/24 11:32:55;;;;;;;26.73;4.72;;;10.80;99.90;;;;;;5032453;28;20046;-69
2024/01/24 11:35:37;;;;;;;22.13;4.95;;;10.80;99.90;;;;;;5032073;28;20045;-67
2024/01/24 11:38:26;;;;;;;22.95;4.20;;;10.70;99.90;;;;;;5034378;28;20038;-69
2024/01/24 11:40:56;;;;;;;23.02;4.40;;;10.70;99.90;;;;;;5035977;28;20052;-68
2024/01/24 11:43:26;;;;;;;26.35;4.35;;;10.80;99.90;;;;;;5040915;28;20059;-68
2024/01/24 11:46:01;;;;;;;24.48;4.40;;;10.80;99.90;;;;;;5036166;28;20342;-68
2024/01/24 11:48:27;;;;;;;32.63;4.72;;;10.70;99.90;;;;;;5037007;28;20125;-70
2024/01/24 11:51:01;;;;;;;20.48;4.07;;;10.70;99.90;;;;;;5044527;28;20079;-68
2024/01/24 11:53:27;;;;;;;32.40;4.65;;;10.70;99.90;;;;;;5044855;28;20041;-68
2024/01/24 11:56:20;;;;;;;31.30;4.75;;;10.80;99.90;;;;;;5041410;28;20052;-68
2024/01/24 11:58:46;;;;;;;22.77;4.50;;;10.80;99.90;;;;;;5034217;28;20523;-68
2024/01/24 12:01:11;;;;;;;27.55;5.03;;;10.80;99.90;;;;;;5048274;28;20033;-70
2024/01/24 12:03:44;;;;;;;23.08;4.40;;;10.80;99.90;;;;;;5049033;28;20036;-69
2024/01/24 12:06:10;;;;;;;28.48;4.53;;;10.80;99.90;;;;;;5046303;28;20047;-69
2024/01/24 12:08:37;;;;;;;27.60;4.72;;;10.90;99.90;;;;;;5044532;28;20033;-69
2024/01/24 12:11:03;;;;;;;25.33;3.75;;;10.90;99.90;;;;;;5041616;28;20075;-67
2024/01/24 12:13:30;;;;;;;22.63;3.90;;;10.90;99.90;;;;;;5033162;28;20056;-67
2024/01/24 12:15:56;;;;;;;20.95;4.03;;;10.90;99.90;;;;;;5050696;28;20061;-70
2024/01/24 12:18:23;;;;;;;30.77;4.57;;;10.90;99.90;;;;;;5023752;28;20552;-68
2024/01/24 12:20:50;;;;;;;28.60;4.30;;;10.90;99.90;;;;;;5043172;28;20102;-67
2024/01/24 12:23:16;;;;;;;24.58;3.95;;;10.90;99.90;;;;;;5029276;28;20042;-69
2024/01/24 12:25:43;;;;;;;26.63;3.72;;;10.90;99.90;;;;;;5014166;28;20047;-66
2024/01/24 12:28:10;;;;;;;25.98;4.75;;;10.90;99.90;;;;;;5032053;28;20046;-70
2024/01/24 12:30:35;;;;;;;26.38;4.18;;;10.80;99.90;;;;;;5032754;28;20056;-67
2024/01/24 12:33:03;;;;;;;24.58;4.15;;;10.80;99.90;;;;;;5034415;28;20515;-72
2024/01/24 12:35:29;;;;;;;25.45;4.40;;;10.80;99.90;;;;;;5014556;28;20383;-69
2024/01/24 12:38:02;;;;;;;24.67;4.55;;;10.70;99.90;;;;;;5031574;28;20189;-68